createdAt,value
2023-04-15T00:02:01.078Z,4.06
2023-04-15T00:04:29.385Z,4.30
2023-04-15T00:06:57.568Z,4.81
2023-04-15T00:09:25.713Z,4.49
2023-04-15T00:11:54.381Z,4.74
2023-04-15T00:14:22.644Z,4.54
2023-04-15T00:16:56.171Z,4.54
2023-04-15T00:19:25.895Z,4.05
2023-04-15T00:21:53.954Z,4.10
2023-04-15T00:24:22.103Z,4.28
2023-04-15T00:26:50.226Z,4.20
2023-04-15T00:29:18.846Z,4.24
2023-04-15T00:31:47.370Z,4.10
2023-04-15T00:34:15.497Z,4.08
2023-04-15T00:36:46.560Z,3.81
2023-04-15T00:39:14.825Z,3.87
2023-04-15T00:41:44.328Z,3.89
2023-04-15T00:44:13.631Z,3.77
2023-04-15T00:46:42.690Z,3.65
2023-04-15T00:49:13.138Z,3.74
2023-04-15T00:51:41.470Z,3.76
2023-04-15T00:54:11.671Z,3.59
2023-04-15T00:56:40.959Z,3.42
2023-04-15T00:59:09.970Z,3.66
2023-04-15T01:01:38.872Z,3.27
2023-04-15T01:04:08.377Z,3.45
2023-04-15T01:06:36.929Z,3.27
2023-04-15T01:09:05.056Z,3.18
2023-04-15T01:11:35.094Z,3.49
2023-04-15T01:14:03.818Z,3.45
2023-04-15T01:16:32.569Z,3.28
2023-04-15T01:19:01.270Z,3.34
2023-04-15T01:21:29.971Z,3.29
2023-04-15T01:23:58.686Z,3.21
2023-04-15T01:26:29.043Z,3.44
2023-04-15T01:28:57.559Z,3.36
2023-04-15T01:31:25.999Z,3.15
2023-04-15T01:33:54.129Z,3.12
2023-04-15T01:36:31.549Z,3.12
2023-04-15T01:38:59.946Z,3.18
2023-04-15T01:41:30.294Z,3.04
2023-04-15T01:43:58.359Z,3.17
2023-04-15T01:46:26.522Z,3.32
2023-04-15T01:48:55.077Z,3.07
2023-04-15T01:51:23.251Z,3.10
2023-04-15T01:53:52.400Z,3.15
2023-04-15T01:56:20.537Z,3.04
2023-04-15T01:58:50.542Z,3.14
2023-04-15T02:01:19.801Z,3.18
2023-04-15T02:03:48.717Z,3.30
2023-04-15T02:06:17.144Z,2.78
2023-04-15T02:08:45.266Z,2.86
2023-04-15T02:11:13.321Z,2.94
2023-04-15T02:13:41.762Z,2.88
2023-04-15T02:16:18.250Z,2.86
2023-04-15T02:18:46.938Z,2.75
2023-04-15T02:21:15.278Z,2.84
2023-04-15T02:23:44.030Z,2.94
2023-04-15T02:26:14.585Z,3.06
2023-04-15T02:28:42.688Z,2.73
2023-04-15T02:31:10.829Z,2.65
2023-04-15T02:33:40.289Z,2.73
2023-04-15T02:36:09.527Z,2.61
2023-04-15T02:38:38.268Z,2.66
2023-04-15T02:41:06.474Z,2.86
2023-04-15T02:43:36.402Z,2.68
2023-04-15T02:46:04.639Z,2.61
2023-04-15T02:48:32.865Z,2.55
2023-04-15T02:51:15.871Z,2.67
2023-04-15T02:53:45.569Z,2.50
2023-04-15T02:56:15.309Z,2.50
2023-04-15T02:58:44.663Z,2.40
2023-04-15T03:01:13.642Z,2.58
2023-04-15T03:03:42.730Z,2.82
2023-04-15T03:06:11.020Z,2.63
2023-04-15T03:08:39.086Z,2.66
2023-04-15T03:11:08.970Z,2.47
2023-04-15T03:13:39.560Z,2.57
2023-04-15T03:16:12.853Z,2.50
2023-04-15T03:18:41.263Z,2.46
2023-04-15T03:21:09.421Z,2.54
2023-04-15T03:23:39.979Z,2.38
2023-04-15T03:26:09.570Z,2.58
2023-04-15T03:28:37.828Z,3.23
2023-04-15T03:31:08.347Z,3.27
2023-04-15T03:33:37.004Z,2.63
2023-04-15T03:36:05.394Z,2.67
2023-04-15T03:38:33.481Z,2.94
2023-04-15T03:41:01.565Z,2.79
2023-04-15T03:43:31.408Z,2.93
2023-04-15T03:46:01.753Z,2.72
2023-04-15T03:48:30.071Z,2.33
2023-04-15T03:50:58.221Z,2.33
2023-04-15T03:53:26.349Z,2.05
2023-04-15T03:55:54.377Z,2.18
2023-04-15T03:58:22.762Z,2.10
2023-04-15T04:00:52.550Z,2.34
2023-04-15T04:03:20.966Z,2.31
2023-04-15T04:05:49.166Z,2.11
2023-04-15T04:08:17.749Z,1.71
2023-04-15T04:10:46.014Z,1.97
2023-04-15T04:13:14.125Z,1.91
2023-04-15T04:15:42.178Z,1.95
2023-04-15T04:18:11.668Z,1.98
2023-04-15T04:20:39.776Z,2.12
2023-04-15T04:23:07.931Z,1.97
2023-04-15T04:25:39.081Z,2.10
2023-04-15T04:28:07.364Z,2.15
2023-04-15T04:30:38.090Z,1.86
2023-04-15T04:33:06.568Z,2.19
2023-04-15T04:35:37.749Z,1.98
2023-04-15T04:38:06.107Z,2.02
2023-04-15T04:40:34.287Z,2.01
2023-04-15T04:43:04.663Z,1.91
2023-04-15T04:45:32.729Z,1.83
2023-04-15T04:48:01.098Z,1.77
2023-04-15T04:50:29.286Z,1.91
2023-04-15T04:52:58.699Z,2.12
2023-04-15T04:55:27.117Z,2.32
2023-04-15T04:57:55.154Z,2.48
2023-04-15T05:00:23.250Z,2.46
2023-04-15T05:02:51.522Z,2.79
2023-04-15T05:05:19.791Z,2.26
2023-04-15T05:07:49.254Z,2.42
2023-04-15T05:10:19.109Z,2.33
2023-04-15T05:12:49.447Z,2.13
2023-04-15T05:15:17.812Z,2.36
2023-04-15T05:17:46.052Z,2.14
2023-04-15T05:20:14.604Z,2.33
2023-04-15T05:22:42.677Z,2.44
2023-04-15T05:25:10.844Z,2.67
2023-04-15T05:27:40.554Z,3.00
2023-04-15T05:30:10.661Z,3.25
2023-04-15T05:32:40.347Z,3.50
2023-04-15T05:35:08.869Z,3.42
2023-04-15T05:37:36.981Z,3.35
2023-04-15T05:40:05.443Z,3.74
2023-04-15T05:42:33.544Z,3.42
2023-04-15T05:45:09.125Z,3.76
2023-04-15T05:47:37.587Z,3.60
2023-04-15T05:50:06.567Z,3.63
2023-04-15T05:52:34.706Z,3.64
2023-04-15T05:55:02.839Z,4.07
2023-04-15T05:57:30.981Z,4.02
2023-04-15T05:59:59.142Z,3.82
2023-04-15T06:02:28.816Z,4.21
2023-04-15T06:04:57.647Z,4.38
2023-04-15T06:07:25.985Z,4.23
2023-04-15T06:09:54.133Z,5.50
2023-04-15T06:12:22.233Z,5.66
2023-04-15T06:14:50.353Z,5.72
2023-04-15T06:17:19.291Z,5.71
2023-04-15T06:19:50.384Z,6.65
2023-04-15T06:22:18.517Z,5.97
2023-04-15T06:24:46.607Z,5.33
2023-04-15T06:27:14.713Z,4.34
2023-04-15T06:29:42.825Z,4.47
2023-04-15T06:32:10.881Z,4.31
2023-04-15T06:34:38.917Z,4.25
2023-04-15T06:37:10.033Z,4.47
2023-04-15T06:39:38.306Z,4.65
2023-04-15T06:42:09.463Z,4.19
2023-04-15T06:44:38.135Z,5.59
2023-04-15T06:47:06.195Z,4.94
2023-04-15T06:49:35.005Z,6.14
2023-04-15T06:52:04.975Z,5.36
2023-04-15T06:54:34.436Z,6.06
2023-04-15T06:57:04.791Z,6.37
2023-04-15T06:59:32.926Z,6.13
2023-04-15T07:02:01.403Z,5.89
2023-04-15T07:04:29.566Z,7.00
2023-04-15T07:06:57.669Z,6.61
2023-04-15T07:09:26.646Z,5.57
2023-04-15T07:11:58.192Z,5.72
2023-04-15T07:14:26.324Z,5.60
2023-04-15T07:16:54.571Z,5.99
2023-04-15T07:19:23.316Z,6.92
2023-04-15T07:21:51.403Z,6.96
2023-04-15T07:24:20.774Z,7.02
2023-04-15T07:26:48.846Z,8.18
2023-04-15T07:29:20.803Z,8.52
2023-04-15T07:31:51.409Z,8.36
2023-04-15T07:34:20.751Z,8.86
2023-04-15T07:36:52.035Z,8.77
2023-04-15T07:39:20.244Z,9.39
2023-04-15T07:41:50.511Z,10.05
2023-04-15T07:44:19.984Z,9.71
2023-04-15T07:46:48.841Z,9.67
2023-04-15T07:49:17.480Z,9.58
2023-04-15T07:51:45.930Z,10.40
2023-04-15T07:54:14.108Z,10.47
2023-04-15T07:56:42.361Z,10.62
2023-04-15T07:59:10.553Z,10.67
2023-04-15T08:01:40.051Z,10.61
2023-04-15T08:04:08.377Z,10.81
2023-04-15T08:06:36.559Z,10.62
2023-04-15T08:09:05.434Z,11.22
2023-04-15T08:11:33.487Z,11.24
2023-04-15T08:14:01.645Z,11.04
2023-04-15T08:16:31.955Z,10.32
2023-04-15T08:19:04.737Z,11.14
2023-04-15T08:21:32.930Z,11.21
2023-04-15T08:24:01.747Z,11.85
2023-04-15T08:26:29.853Z,11.86
2023-04-15T08:28:58.053Z,11.83
2023-04-15T08:31:27.853Z,12.05
2023-04-15T08:33:56.884Z,12.10
2023-04-15T08:36:27.148Z,12.26
2023-04-15T08:38:55.342Z,12.76
2023-04-15T08:41:24.339Z,12.58
2023-04-15T08:43:55.800Z,12.62
2023-04-15T08:46:24.435Z,12.87
2023-04-15T08:48:53.443Z,12.75
2023-04-15T08:51:22.777Z,12.46
2023-04-15T08:53:53.485Z,12.10
2023-04-15T08:56:25.422Z,11.81
2023-04-15T08:58:54.237Z,12.25
2023-04-15T09:01:22.619Z,12.57
2023-04-15T09:03:51.553Z,12.14
2023-04-15T09:06:19.805Z,13.20
2023-04-15T09:08:47.960Z,13.16
2023-04-15T09:11:20.015Z,12.14
2023-04-15T09:13:48.937Z,12.76
2023-04-15T09:16:19.625Z,13.30
2023-04-15T09:18:47.689Z,13.16
2023-04-15T09:21:16.507Z,14.20
2023-04-15T09:23:55.626Z,14.18
2023-04-15T09:26:32.726Z,14.23
2023-04-15T09:29:07.742Z,13.60
2023-04-15T09:31:36.717Z,13.86
2023-04-15T09:34:04.798Z,14.32
2023-04-15T09:36:42.664Z,14.60
2023-04-15T09:39:10.807Z,15.00
2023-04-15T09:41:40.424Z,14.75
2023-04-15T09:44:08.963Z,14.64
2023-04-15T09:46:43.644Z,14.69
2023-04-15T09:49:12.519Z,14.77
2023-04-15T09:51:41.307Z,14.55
2023-04-15T09:54:10.316Z,14.16
2023-04-15T09:56:42.105Z,13.64
2023-04-15T09:59:10.624Z,14.08
2023-04-15T10:01:39.291Z,15.09
2023-04-15T10:04:07.724Z,14.60
2023-04-15T10:06:36.999Z,15.23
2023-04-15T10:09:05.211Z,14.84
2023-04-15T10:11:34.654Z,14.32
2023-04-15T10:14:04.563Z,15.31
2023-04-15T10:16:34.322Z,14.13
2023-04-15T10:19:04.406Z,13.98
2023-04-15T10:21:32.452Z,14.42
2023-04-15T10:24:02.162Z,14.99
2023-04-15T10:26:30.959Z,13.96
2023-04-15T10:29:00.150Z,14.52
2023-04-15T10:31:32.640Z,14.24
2023-04-15T10:34:04.041Z,14.33
2023-04-15T10:36:32.539Z,15.00
2023-04-15T10:39:03.770Z,14.34
2023-04-15T10:41:36.773Z,14.18
2023-04-15T10:44:05.767Z,15.18
2023-04-15T10:46:40.126Z,14.93
2023-04-15T10:49:08.828Z,14.86
2023-04-15T10:51:41.503Z,14.56
2023-04-15T10:54:11.448Z,15.19
2023-04-15T10:56:39.523Z,14.78
2023-04-15T10:59:07.584Z,14.96
2023-04-15T11:01:54.259Z,14.83
2023-04-15T11:04:37.448Z,14.98
2023-04-15T11:07:09.998Z,14.81
2023-04-15T11:09:38.116Z,14.96
2023-04-15T11:12:06.927Z,15.02
2023-04-15T11:14:35.761Z,15.00
2023-04-15T11:17:04.547Z,14.85
2023-04-15T11:19:38.752Z,14.92
2023-04-15T11:22:12.301Z,14.53
2023-04-15T11:24:48.177Z,14.92
2023-04-15T11:27:21.725Z,15.71
2023-04-15T11:29:49.878Z,14.84
2023-04-15T11:32:18.290Z,15.05
2023-04-15T11:34:48.949Z,15.03
2023-04-15T11:37:18.590Z,15.50
2023-04-15T11:39:46.689Z,15.56
2023-04-15T11:42:17.807Z,15.78
2023-04-15T11:44:45.928Z,15.59
2023-04-15T11:47:25.486Z,15.61
2023-04-15T11:49:53.996Z,15.82
2023-04-15T11:52:25.922Z,15.58
2023-04-15T11:55:03.095Z,15.80
2023-04-15T11:57:32.404Z,14.72
2023-04-15T12:00:00.520Z,15.27
2023-04-15T12:02:32.084Z,14.73
2023-04-15T12:05:07.110Z,14.87
2023-04-15T12:07:56.959Z,15.41
2023-04-15T12:10:27.513Z,12.85
2023-04-15T12:12:55.613Z,12.55
2023-04-15T12:15:24.847Z,12.69
2023-04-15T12:17:55.583Z,12.57
2023-04-15T12:20:26.488Z,12.70
2023-04-15T12:23:06.072Z,12.55
2023-04-15T12:25:35.334Z,12.42
2023-04-15T12:28:11.794Z,12.22
2023-04-15T12:30:49.875Z,12.46
2023-04-15T12:33:19.458Z,12.33
2023-04-15T12:35:47.671Z,12.23
2023-04-15T12:38:17.111Z,12.48
2023-04-15T12:40:48.030Z,13.21
2023-04-15T12:43:16.163Z,12.70
2023-04-15T12:45:44.189Z,12.28
2023-04-15T12:48:14.436Z,12.80
2023-04-15T12:50:42.512Z,12.69
2023-04-15T12:53:10.533Z,12.56
2023-04-15T12:55:40.284Z,12.98
2023-04-15T12:58:08.389Z,13.31
2023-04-15T13:00:38.815Z,13.17
2023-04-15T13:03:07.270Z,12.79
2023-04-15T13:05:37.027Z,12.97
2023-04-15T13:08:05.274Z,13.38
2023-04-15T13:10:33.323Z,13.39
2023-04-15T13:13:03.433Z,13.23
2023-04-15T13:15:31.503Z,13.76
2023-04-15T13:17:59.685Z,13.17
2023-04-15T13:20:27.916Z,13.33
2023-04-15T13:22:56.173Z,12.82
2023-04-15T13:25:24.270Z,13.08
2023-04-15T13:27:52.373Z,13.47
2023-04-15T13:30:21.750Z,13.06
2023-04-15T13:32:50.658Z,13.31
2023-04-15T13:35:18.996Z,13.64
2023-04-15T13:37:47.548Z,13.23
2023-04-15T13:40:15.645Z,13.03
2023-04-15T13:42:44.105Z,13.29
2023-04-15T13:45:12.580Z,13.01
2023-04-15T13:47:42.834Z,13.15
2023-04-15T13:50:11.224Z,13.07
2023-04-15T13:52:41.379Z,12.85
2023-04-15T13:55:20.440Z,12.72
2023-04-15T13:57:50.472Z,12.73
2023-04-15T14:00:18.640Z,12.66
2023-04-15T14:02:48.220Z,12.72
2023-04-15T14:05:16.318Z,12.76
2023-04-15T14:07:45.258Z,12.49
2023-04-15T14:10:15.526Z,12.32
2023-04-15T14:12:43.562Z,12.52
2023-04-15T14:15:13.665Z,12.24
2023-04-15T14:17:42.558Z,12.74
2023-04-15T14:20:13.535Z,12.34
2023-04-15T14:22:42.878Z,12.36
2023-04-15T14:25:15.124Z,12.12
2023-04-15T14:27:51.554Z,11.92
2023-04-15T14:30:19.655Z,12.29
2023-04-15T14:32:48.165Z,12.35
2023-04-15T14:35:17.672Z,12.17
2023-04-15T14:37:45.764Z,11.79
2023-04-15T14:40:13.874Z,11.74
2023-04-15T14:42:41.981Z,11.73
2023-04-15T14:45:10.930Z,11.75
2023-04-15T14:47:39.041Z,11.98
2023-04-15T14:50:07.571Z,11.81
2023-04-15T14:52:39.466Z,11.86
2023-04-15T14:55:08.196Z,11.86
2023-04-15T14:57:36.361Z,12.18
2023-04-15T15:00:04.661Z,12.05
2023-04-15T15:02:38.932Z,12.29
2023-04-15T15:05:08.917Z,11.84
2023-04-15T15:07:39.391Z,11.94
2023-04-15T15:10:07.948Z,12.29
2023-04-15T15:12:36.116Z,12.27
2023-04-15T15:15:12.289Z,12.41
2023-04-15T15:17:44.168Z,12.37
2023-04-15T15:20:12.442Z,12.27
2023-04-15T15:22:41.891Z,12.58
2023-04-15T15:25:10.089Z,12.39
2023-04-15T15:27:38.521Z,12.57
2023-04-15T15:30:07.495Z,12.57
2023-04-15T15:32:35.657Z,12.59
2023-04-15T15:35:03.855Z,12.60
2023-04-15T15:37:32.004Z,12.32
2023-04-15T15:40:01.935Z,12.18
2023-04-15T15:42:32.069Z,12.01
2023-04-15T15:45:00.175Z,11.90
2023-04-15T15:47:28.379Z,12.10
2023-04-15T15:49:56.637Z,11.70
2023-04-15T15:52:24.717Z,11.80
2023-04-15T15:54:52.794Z,11.82
2023-04-15T15:57:22.219Z,11.88
2023-04-15T15:59:53.120Z,11.63
2023-04-15T16:02:45.806Z,11.22
2023-04-15T16:05:13.717Z,11.24
2023-04-15T16:07:43.850Z,11.07
2023-04-15T16:10:13.937Z,11.20
2023-04-15T16:12:43.489Z,10.95
2023-04-15T16:15:12.129Z,11.08
2023-04-15T16:17:40.308Z,10.92
2023-04-15T16:20:08.968Z,10.81
2023-04-15T16:22:37.192Z,11.15
2023-04-15T16:25:05.435Z,10.70
2023-04-15T16:27:36.464Z,10.35
2023-04-15T16:30:14.301Z,10.20
2023-04-15T16:32:42.509Z,10.09
2023-04-15T16:35:11.645Z,-143.11
2023-04-15T16:37:39.890Z,-143.11
2023-04-15T16:40:08.809Z,-143.11
2023-04-15T16:42:37.039Z,-143.11
2023-04-15T16:45:05.578Z,-143.11
2023-04-15T16:47:35.024Z,-143.11
2023-04-15T16:50:03.140Z,-143.11
2023-04-15T16:52:31.229Z,-143.11
2023-04-15T16:54:59.274Z,-143.11
2023-04-15T16:57:36.581Z,-143.11
2023-04-15T17:00:16.044Z,-143.11
2023-04-15T17:02:45.991Z,-143.11
2023-04-15T17:05:15.109Z,-143.11
2023-04-15T17:07:43.256Z,-143.11
2023-04-15T17:10:13.757Z,-143.11
2023-04-15T17:12:41.846Z,-143.11
2023-04-15T17:15:10.531Z,-143.11
2023-04-15T17:17:41.176Z,-143.11
2023-04-15T17:20:11.459Z,-143.11
2023-04-15T17:22:41.901Z,-143.11
2023-04-15T17:25:10.169Z,-143.11
2023-04-15T17:27:38.937Z,-143.11
2023-04-15T17:30:10.734Z,-143.11
2023-04-15T17:32:39.969Z,-143.11
2023-04-15T17:35:10.534Z,-143.11
2023-04-15T17:37:38.821Z,-143.11
2023-04-15T17:40:08.770Z,-143.11
2023-04-15T17:42:39.170Z,-143.11
2023-04-15T17:45:07.869Z,-143.11
2023-04-15T17:47:36.217Z,-143.11
2023-04-15T17:50:04.386Z,-143.11
2023-04-15T17:52:33.836Z,-143.11
2023-04-15T17:55:02.490Z,-143.11
2023-04-15T17:57:30.881Z,-143.11
2023-04-15T17:59:58.993Z,-143.11
2023-04-15T18:02:27.424Z,-143.11
2023-04-15T18:04:56.137Z,-143.11
2023-04-15T18:07:24.335Z,-143.11
2023-04-15T18:09:55.898Z,-143.11
2023-04-15T18:12:24.041Z,-143.11
2023-04-15T18:14:52.114Z,-143.11
2023-04-15T18:17:20.372Z,-143.11
2023-04-15T18:19:49.061Z,-143.11
2023-04-15T18:22:17.192Z,-143.11
2023-04-15T18:24:45.258Z,-143.11
2023-04-15T18:27:17.453Z,-143.11
2023-04-15T18:29:45.611Z,-143.11
2023-04-15T18:32:14.004Z,-143.11
2023-04-15T18:34:42.871Z,-143.11
2023-04-15T18:37:11.115Z,-143.11
2023-04-15T18:39:39.323Z,-143.11
2023-04-15T18:42:07.686Z,-143.11
2023-04-15T18:44:37.093Z,-143.11
2023-04-15T18:47:05.805Z,-143.11
2023-04-15T18:49:34.206Z,-143.11
2023-04-15T18:52:02.813Z,-143.11
2023-04-15T18:54:31.190Z,-143.11
2023-04-15T18:56:59.486Z,-143.11
2023-04-15T18:59:30.335Z,-143.11
2023-04-15T19:02:00.607Z,-143.11
2023-04-15T19:04:31.030Z,-143.11
2023-04-15T19:06:59.732Z,-143.11
2023-04-15T19:09:30.753Z,-143.11
2023-04-15T19:11:58.837Z,-143.11
2023-04-15T19:14:27.145Z,-143.11
2023-04-15T19:16:55.561Z,-143.11
2023-04-15T19:19:27.931Z,-143.11
2023-04-15T19:21:56.349Z,-143.11
2023-04-15T19:24:27.420Z,-143.11
2023-04-15T19:26:57.172Z,-143.11
2023-04-15T19:29:25.466Z,-143.11
2023-04-15T19:31:53.499Z,-143.11
2023-04-15T19:34:21.687Z,-143.11
2023-04-15T19:36:51.145Z,-143.11
2023-04-15T19:39:19.650Z,-143.11
2023-04-15T19:41:48.085Z,-143.11
2023-04-15T19:44:16.173Z,-143.11
2023-04-15T19:46:44.949Z,-143.11
2023-04-15T19:49:13.327Z,-143.11
2023-04-15T19:51:42.254Z,-143.11
2023-04-15T19:54:11.787Z,-143.11
2023-04-15T19:56:42.144Z,-143.11
2023-04-15T19:59:12.597Z,-143.11
2023-04-15T20:01:43.265Z,-143.11
2023-04-15T20:04:14.660Z,-143.11
2023-04-15T20:06:42.977Z,-143.11
2023-04-15T20:09:12.576Z,-143.11
2023-04-15T20:12:06.131Z,-143.11
2023-04-15T20:14:29.024Z,-143.11
2023-04-15T20:16:59.309Z,-143.11
2023-04-15T20:19:27.458Z,-143.11
2023-04-15T20:21:56.042Z,-143.11
2023-04-15T20:24:25.431Z,-143.11
2023-04-15T20:26:53.501Z,-143.11
2023-04-15T20:29:21.587Z,-143.11
2023-04-15T20:31:52.672Z,-143.11
2023-04-15T20:34:21.258Z,-143.11
2023-04-15T20:36:49.373Z,-143.11
2023-04-15T20:39:17.519Z,-143.11
2023-04-15T20:41:50.595Z,-143.11
2023-04-15T20:44:18.752Z,-143.11
2023-04-15T20:46:46.804Z,-143.11
2023-04-15T20:49:15.042Z,-143.11
2023-04-15T20:51:43.168Z,-143.11
2023-04-15T20:54:11.293Z,-143.11
2023-04-15T20:56:39.431Z,-143.11
2023-04-15T20:59:08.889Z,-143.11
2023-04-15T21:01:37.063Z,-143.11
2023-04-15T21:04:05.334Z,-143.11
2023-04-15T21:06:33.982Z,-143.11
2023-04-15T21:09:02.149Z,-143.11
2023-04-15T21:11:53.239Z,-143.11
2023-04-15T21:14:19.871Z,-143.11
2023-04-15T21:16:48.189Z,-143.11
2023-04-15T21:19:18.691Z,-143.11
2023-04-15T21:21:46.771Z,-143.11
2023-04-15T21:24:14.895Z,-143.11
2023-04-15T21:26:42.955Z,-143.11
2023-04-15T21:29:11.927Z,-143.11
2023-04-15T21:31:42.112Z,-143.11
2023-04-15T21:34:10.480Z,-143.11
2023-04-15T21:36:38.739Z,-143.11
2023-04-15T21:39:07.298Z,-143.11
2023-04-15T21:41:36.663Z,-143.11
2023-04-15T21:44:05.263Z,-143.11
2023-04-15T21:46:36.143Z,-143.11
2023-04-15T21:49:08.691Z,-143.11
2023-04-15T21:51:36.984Z,-143.11
2023-04-15T21:54:05.197Z,-143.11
2023-04-15T21:56:33.439Z,-143.11
2023-04-15T21:59:01.609Z,-143.11
2023-04-15T22:02:37.728Z,7.85
2023-04-15T22:05:08.784Z,7.84
2023-04-15T22:07:37.117Z,8.00
2023-04-15T22:10:05.466Z,8.09
2023-04-15T22:12:33.569Z,9.26
2023-04-15T22:15:03.955Z,8.00
2023-04-15T22:17:32.095Z,8.03
2023-04-15T22:20:01.590Z,8.07
2023-04-15T22:22:43.608Z,7.91
2023-04-15T22:25:12.682Z,7.98
2023-04-15T22:27:40.821Z,8.07
2023-04-15T22:30:09.501Z,7.88
2023-04-15T22:32:39.965Z,8.03
2023-04-15T22:35:09.904Z,8.64
2023-04-15T22:37:38.042Z,7.98
2023-04-15T22:40:06.693Z,8.92
2023-04-15T22:42:34.818Z,9.07
2023-04-15T22:45:02.918Z,9.34
2023-04-15T22:47:31.040Z,9.35
2023-04-15T22:49:59.164Z,9.79
2023-04-15T22:52:31.047Z,9.58
2023-04-15T22:54:59.739Z,8.10
2023-04-15T22:57:28.582Z,10.28
2023-04-15T22:59:56.741Z,9.78
2023-04-15T23:02:25.090Z,9.87
2023-04-15T23:04:53.477Z,9.80
2023-04-15T23:07:21.645Z,8.38
2023-04-15T23:09:51.212Z,10.32
2023-04-15T23:12:19.276Z,9.68
2023-04-15T23:14:47.321Z,9.36
2023-04-15T23:17:15.454Z,9.33
2023-04-15T23:19:44.068Z,9.73
2023-04-15T23:22:14.446Z,9.39
2023-04-15T23:24:42.558Z,9.24
2023-04-15T23:27:11.991Z,9.28
2023-04-15T23:29:40.146Z,8.80
2023-04-15T23:32:08.265Z,9.30
2023-04-15T23:34:38.557Z,9.05
2023-04-15T23:37:06.666Z,9.22
2023-04-15T23:39:34.862Z,8.85
2023-04-15T23:42:02.987Z,8.93
2023-04-15T23:44:32.449Z,9.32
2023-04-15T23:47:00.648Z,8.95
2023-04-15T23:49:28.792Z,9.13
2023-04-15T23:51:57.577Z,9.12
2023-04-15T23:54:25.681Z,9.26
2023-04-15T23:56:53.770Z,9.29
2023-04-15T23:59:21.844Z,9.16
